Terminal Aerodrome Forecast
Issued by NWS

Home | Current Version | Previous Version | Text Only | Print | Product List | Glossary On
Versions: 1 2 3 4 5 6 7 8 9 10 11 12
000
FTUS45 KGJT 231757 RRA
TAFMTJ
TAF
KMTJ 231757Z 2318/2418 19003KT P6SM BKN250
     FM232000 34005KT P6SM BKN250
     FM240200 14006KT P6SM FEW120 FEW250
     FM241400 VRB03KT P6SM FEW100 SCT250=

USA.gov is the U.S. government's official web portal to all federal, state and local government web resources and services.